createdAt,value
2022-08-09T00:01:54.979Z,14.05
2022-08-09T00:04:34.502Z,8.63
2022-08-09T00:07:07.706Z,11.05
2022-08-09T00:09:47.721Z,11.88
2022-08-09T00:12:22.745Z,15.95
2022-08-09T00:14:54.447Z,11.93
2022-08-09T00:18:04.360Z,11.10
2022-08-09T00:20:17.010Z,18.33
2022-08-09T00:22:47.258Z,9.75
2022-08-09T00:25:23.450Z,10.32
2022-08-09T00:28:04.519Z,9.10
2022-08-09T00:30:32.829Z,12.35
2022-08-09T00:33:02.812Z,13.13
2022-08-09T00:35:43.349Z,8.48
2022-08-09T00:38:21.437Z,10.68
2022-08-09T00:40:53.968Z,16.35
2022-08-09T00:44:16.465Z,25.52
2022-08-09T00:46:11.419Z,20.10
2022-08-09T00:48:57.558Z,18.25
2022-08-09T00:51:27.639Z,15.20
2022-08-09T00:54:03.291Z,16.93
2022-08-09T00:56:31.132Z,14.27
2022-08-09T00:59:00.862Z,16.45
2022-08-09T01:01:44.551Z,13.73
2022-08-09T01:04:34.211Z,16.40
2022-08-09T01:07:12.288Z,19.05
2022-08-09T01:09:54.395Z,16.00
2022-08-09T01:12:35.557Z,16.77
2022-08-09T01:15:17.694Z,10.65
2022-08-09T01:17:59.637Z,11.25
2022-08-09T01:20:55.598Z,10.75
2022-08-09T01:24:03.160Z,10.65
2022-08-09T01:26:59.383Z,14.35
2022-08-09T01:29:41.394Z,8.25
2022-08-09T01:32:31.750Z,8.43
2022-08-09T01:35:07.014Z,9.23
2022-08-09T01:38:09.508Z,8.18
2022-08-09T01:40:52.787Z,9.55
2022-08-09T01:43:50.097Z,10.65
2022-08-09T01:46:24.891Z,10.32
2022-08-09T01:48:59.747Z,20.40
2022-08-09T01:51:32.166Z,15.52
2022-08-09T01:54:06.460Z,15.13
2022-08-09T01:56:38.286Z,13.00
2022-08-09T01:59:15.173Z,15.45
2022-08-09T02:01:58.604Z,9.60
2022-08-09T02:04:31.267Z,14.98
2022-08-09T02:08:35.853Z,16.00
2022-08-09T02:10:31.542Z,8.23
2022-08-09T02:13:09.606Z,11.57
2022-08-09T02:15:49.347Z,10.23
2022-08-09T02:18:24.225Z,12.77
2022-08-09T02:21:00.159Z,9.75
2022-08-09T02:23:45.517Z,13.13
2022-08-09T02:26:25.106Z,10.63
2022-08-09T02:28:57.918Z,10.65
2022-08-09T02:31:37.975Z,8.50
2022-08-09T02:34:13.810Z,9.57
2022-08-09T02:37:12.119Z,10.73
2022-08-09T02:39:49.920Z,8.88
2022-08-09T02:42:34.267Z,8.07
2022-08-09T02:45:14.019Z,12.93
2022-08-09T02:47:57.513Z,13.63
2022-08-09T02:50:34.832Z,10.60
2022-08-09T02:53:17.299Z,9.57
2022-08-09T02:56:00.073Z,7.07
2022-08-09T02:58:36.331Z,8.82
2022-08-09T03:01:10.864Z,9.27
2022-08-09T03:04:12.413Z,9.70
2022-08-09T03:06:31.763Z,12.38
2022-08-09T03:09:01.976Z,15.73
2022-08-09T03:12:05.971Z,11.57
2022-08-09T03:14:28.152Z,14.38
2022-08-09T03:16:58.336Z,11.23
2022-08-09T03:19:59.204Z,7.57
2022-08-09T03:22:24.980Z,9.10
2022-08-09T03:25:21.786Z,9.93
2022-08-09T03:27:56.730Z,10.52
2022-08-09T03:30:33.032Z,7.35
2022-08-09T03:33:12.741Z,7.88
2022-08-09T03:36:12.792Z,15.75
2022-08-09T03:38:44.630Z,15.73
2022-08-09T03:41:16.327Z,16.63
2022-08-09T03:44:08.565Z,18.17
2022-08-09T03:46:36.589Z,15.52
2022-08-09T03:49:07.883Z,10.30
2022-08-09T03:51:55.184Z,13.20
2022-08-09T03:54:31.384Z,11.63
2022-08-09T03:57:18.649Z,18.85
2022-08-09T03:59:55.470Z,17.63
2022-08-09T04:02:27.843Z,12.13
2022-08-09T04:05:00.935Z,16.98
2022-08-09T04:07:47.657Z,16.40
2022-08-09T04:10:29.719Z,13.13
2022-08-09T04:13:03.982Z,12.00
2022-08-09T04:15:52.085Z,12.67
2022-08-09T04:18:25.184Z,12.13
2022-08-09T04:21:05.693Z,12.13
2022-08-09T04:23:34.011Z,13.73
2022-08-09T04:26:02.517Z,13.07
2022-08-09T04:28:36.258Z,17.40
2022-08-09T04:31:09.355Z,15.77
2022-08-09T04:33:52.056Z,14.85
2022-08-09T04:36:24.513Z,14.93
2022-08-09T04:38:56.186Z,14.57
2022-08-09T04:41:32.326Z,18.95
2022-08-09T04:44:12.403Z,17.42
2022-08-09T04:46:59.148Z,17.30
2022-08-09T04:49:53.926Z,11.00
2022-08-09T04:52:42.416Z,15.07
2022-08-09T04:55:12.340Z,14.23
2022-08-09T04:57:54.463Z,16.30
2022-08-09T05:00:35.913Z,14.60
2022-08-09T05:03:30.141Z,16.35
2022-08-09T05:06:04.394Z,21.80
2022-08-09T05:08:35.187Z,24.65
2022-08-09T05:11:06.730Z,17.65
2022-08-09T05:13:38.652Z,18.50
2022-08-09T05:16:08.690Z,18.10
2022-08-09T05:18:57.461Z,26.63
2022-08-09T05:21:36.644Z,16.92
2022-08-09T05:24:15.925Z,10.77
2022-08-09T05:26:45.970Z,20.70
2022-08-09T05:29:31.576Z,11.02
2022-08-09T05:32:02.786Z,15.32
2022-08-09T05:34:34.304Z,14.02
2022-08-09T05:37:06.428Z,18.00
2022-08-09T05:39:43.258Z,11.52
2022-08-09T05:42:21.348Z,16.45
2022-08-09T05:44:54.494Z,13.80
2022-08-09T05:47:33.196Z,14.60
2022-08-09T05:50:26.628Z,12.15
2022-08-09T05:52:53.548Z,21.63
2022-08-09T05:55:24.274Z,17.33
2022-08-09T05:57:56.860Z,16.42
2022-08-09T06:00:29.078Z,17.27
2022-08-09T06:03:03.677Z,17.27
2022-08-09T06:05:56.958Z,19.35
2022-08-09T06:08:25.453Z,19.05
2022-08-09T06:10:55.742Z,15.02
2022-08-09T06:13:28.743Z,20.08
2022-08-09T06:16:04.756Z,22.02
2022-08-09T06:18:35.294Z,22.92
2022-08-09T06:21:06.936Z,18.92
2022-08-09T06:23:55.745Z,13.18
2022-08-09T06:26:28.496Z,17.85
2022-08-09T06:29:00.106Z,20.00
2022-08-09T06:31:40.457Z,22.33
2022-08-09T06:34:26.058Z,14.02
2022-08-09T06:37:00.063Z,14.60
2022-08-09T06:39:58.182Z,27.08
2022-08-09T06:42:24.386Z,26.42
2022-08-09T06:44:54.514Z,40.85
2022-08-09T06:47:24.119Z,24.00
2022-08-09T06:50:14.518Z,41.53
2022-08-09T06:52:56.179Z,30.40
2022-08-09T06:55:26.685Z,26.50
2022-08-09T06:58:03.198Z,25.00
2022-08-09T07:00:55.579Z,25.58
2022-08-09T07:03:27.874Z,28.85
2022-08-09T07:06:03.802Z,22.52
2022-08-09T07:08:37.238Z,23.08
2022-08-09T07:11:08.641Z,25.77
2022-08-09T07:13:45.399Z,23.38
2022-08-09T07:16:41.579Z,18.77
2022-08-09T07:19:22.863Z,23.23
2022-08-09T07:21:57.031Z,21.90
2022-08-09T07:24:40.234Z,18.40
2022-08-09T07:27:33.847Z,19.60
2022-08-09T07:30:02.374Z,22.42
2022-08-09T07:32:33.079Z,24.63
2022-08-09T07:35:10.225Z,17.95
2022-08-09T07:37:44.831Z,19.02
2022-08-09T07:40:20.612Z,23.48
2022-08-09T07:42:58.864Z,15.75
2022-08-09T07:45:37.901Z,22.23
2022-08-09T07:48:28.836Z,26.23
2022-08-09T07:51:03.200Z,25.63
2022-08-09T07:54:06.237Z,17.98
2022-08-09T07:56:34.040Z,28.42
2022-08-09T07:59:12.366Z,24.83
2022-08-09T08:01:53.115Z,22.70
2022-08-09T08:04:21.030Z,14.88
2022-08-09T08:07:15.173Z,22.48
2022-08-09T08:10:08.525Z,16.45
2022-08-09T08:12:43.158Z,15.32
2022-08-09T08:17:58.428Z,15.63
2022-08-09T08:20:32.666Z,17.90
2022-08-09T08:23:16.435Z,18.95
2022-08-09T08:25:49.812Z,13.38
2022-08-09T08:28:25.985Z,15.60
2022-08-09T08:31:13.928Z,16.25
2022-08-09T08:33:53.891Z,13.55
2022-08-09T08:36:29.593Z,12.77
2022-08-09T08:39:00.295Z,11.60
2022-08-09T08:41:50.528Z,12.10
2022-08-09T08:44:28.820Z,15.82
2022-08-09T08:47:12.307Z,11.50
2022-08-09T08:49:49.876Z,16.10
2022-08-09T08:55:10.932Z,13.32
2022-08-09T08:57:44.040Z,11.43
2022-08-09T09:00:34.048Z,13.38
2022-08-09T09:03:11.426Z,12.57
2022-08-09T09:05:58.211Z,14.38
2022-08-09T09:08:40.223Z,13.20
2022-08-09T09:11:17.579Z,12.23
2022-08-09T09:13:55.587Z,16.08
2022-08-09T09:16:34.571Z,15.43
2022-08-09T09:19:22.610Z,11.00
2022-08-09T09:21:59.616Z,14.48
2022-08-09T09:24:37.791Z,18.60
2022-08-09T09:27:09.271Z,12.02
2022-08-09T09:30:10.739Z,15.52
2022-08-09T09:32:40.851Z,13.77
2022-08-09T09:35:15.679Z,11.23
2022-08-09T09:37:46.094Z,10.90
2022-08-09T09:40:13.514Z,13.13
2022-08-09T09:42:58.833Z,15.02
2022-08-09T09:45:29.568Z,15.82
2022-08-09T09:48:04.254Z,15.50
2022-08-09T09:50:50.552Z,13.25
2022-08-09T09:53:43.834Z,13.93
2022-08-09T09:56:20.061Z,15.32
2022-08-09T09:58:59.061Z,12.13
2022-08-09T10:01:38.101Z,11.82
2022-08-09T10:04:22.992Z,11.60
2022-08-09T10:07:03.349Z,7.80
2022-08-09T10:09:54.919Z,7.30
2022-08-09T10:12:43.547Z,8.00
2022-08-09T10:15:50.657Z,11.52
2022-08-09T10:18:13.081Z,8.65
2022-08-09T10:20:44.581Z,9.65
2022-08-09T10:23:21.091Z,11.00
2022-08-09T10:26:07.218Z,13.50
2022-08-09T10:28:41.791Z,8.23
2022-08-09T10:34:10.673Z,9.88
2022-08-09T10:36:50.941Z,11.65
2022-08-09T10:39:20.427Z,9.95
2022-08-09T10:41:50.852Z,8.43
2022-08-09T10:44:22.932Z,7.63
2022-08-09T10:48:16.570Z,12.15
2022-08-09T10:51:01.718Z,10.13
2022-08-09T10:54:09.997Z,9.93
2022-08-09T10:56:42.848Z,9.65
2022-08-09T10:59:55.385Z,11.75
2022-08-09T11:03:14.570Z,10.55
2022-08-09T11:05:30.006Z,6.38
2022-08-09T11:08:47.066Z,8.43
2022-08-09T11:11:19.098Z,10.63
2022-08-09T11:14:38.402Z,15.20
2022-08-09T11:17:35.026Z,11.63
2022-08-09T11:20:23.058Z,25.05
2022-08-09T11:22:56.731Z,16.10
2022-08-09T11:25:47.906Z,16.92
2022-08-09T11:28:53.327Z,19.40
2022-08-09T11:31:43.514Z,25.45
2022-08-09T11:34:28.124Z,15.32
2022-08-09T11:36:59.574Z,21.00
2022-08-09T11:39:37.815Z,16.20
2022-08-09T11:42:14.602Z,14.48
2022-08-09T11:44:50.102Z,22.42
2022-08-09T11:47:19.776Z,16.33
2022-08-09T11:50:56.318Z,16.70
2022-08-09T11:53:58.728Z,17.45
2022-08-09T11:55:53.644Z,11.48
2022-08-09T11:58:48.086Z,14.80
2022-08-09T12:01:37.874Z,16.52
2022-08-09T12:04:23.928Z,14.05
2022-08-09T12:07:16.287Z,17.98
2022-08-09T12:09:50.848Z,18.55
2022-08-09T12:12:20.297Z,23.10
2022-08-09T12:15:07.622Z,60.10
2022-08-09T12:17:43.430Z,55.95
2022-08-09T12:20:16.567Z,49.30
2022-08-09T12:22:56.431Z,31.45
2022-08-09T12:25:37.951Z,31.60
2022-08-09T12:28:59.288Z,38.83
2022-08-09T12:33:58.381Z,79.68
2022-08-09T12:36:33.596Z,36.58
2022-08-09T12:39:02.290Z,22.02
2022-08-09T12:41:38.977Z,23.45
2022-08-09T12:44:10.175Z,14.75
2022-08-09T12:46:49.208Z,11.02
2022-08-09T12:49:20.978Z,10.25
2022-08-09T12:52:01.990Z,9.40
2022-08-09T12:55:03.183Z,9.90
2022-08-09T12:57:40.840Z,13.63
2022-08-09T13:00:25.935Z,9.88
2022-08-09T13:02:58.831Z,13.48
2022-08-09T13:05:35.530Z,14.00
2022-08-09T13:08:21.212Z,12.32
2022-08-09T13:11:23.348Z,8.27
2022-08-09T13:14:41.458Z,11.68
2022-08-09T13:16:47.154Z,15.43
2022-08-09T13:20:09.908Z,7.07
2022-08-09T13:23:01.403Z,10.57
2022-08-09T13:25:55.003Z,6.18
2022-08-09T13:28:35.592Z,12.13
2022-08-09T13:32:13.951Z,6.32
2022-08-09T13:34:02.228Z,6.30
2022-08-09T13:36:42.561Z,6.68
2022-08-09T13:41:51.667Z,10.18
2022-08-09T13:42:11.042Z,11.98
2022-08-09T13:44:49.238Z,7.07
2022-08-09T13:47:31.090Z,9.48
2022-08-09T13:50:30.072Z,8.98
2022-08-09T13:52:58.325Z,10.60
2022-08-09T13:55:28.889Z,7.88
2022-08-09T13:57:58.507Z,7.90
2022-08-09T14:00:30.497Z,6.20
2022-08-09T14:03:03.249Z,7.57
2022-08-09T14:06:00.291Z,12.32
2022-08-09T14:08:31.877Z,9.85
2022-08-09T14:11:03.446Z,6.10
2022-08-09T14:14:22.319Z,11.80
2022-08-09T14:16:29.061Z,9.02
2022-08-09T14:18:59.703Z,9.40
2022-08-09T14:21:32.398Z,8.52
2022-08-09T14:24:05.554Z,11.23
2022-08-09T14:26:39.951Z,11.60
2022-08-09T14:29:25.674Z,14.88
2022-08-09T14:32:04.549Z,9.98
2022-08-09T14:34:41.039Z,10.65
2022-08-09T14:37:12.959Z,13.95
2022-08-09T14:39:48.422Z,10.95
2022-08-09T14:42:31.030Z,11.55
2022-08-09T14:46:39.643Z,12.75
2022-08-09T14:47:57.937Z,9.80
2022-08-09T14:50:37.128Z,6.70
2022-08-09T14:53:14.071Z,15.90
2022-08-09T14:55:50.100Z,9.57
2022-08-09T14:58:19.883Z,12.98
2022-08-09T15:00:50.951Z,12.13
2022-08-09T15:03:21.055Z,14.52
2022-08-09T15:05:52.269Z,8.43
2022-08-09T15:08:23.989Z,11.68
2022-08-09T15:11:01.222Z,11.38
2022-08-09T15:13:48.395Z,8.32
2022-08-09T15:16:23.895Z,10.07
2022-08-09T15:18:59.722Z,9.15
2022-08-09T15:21:54.744Z,12.02
2022-08-09T15:24:27.088Z,7.60
2022-08-09T15:26:58.074Z,8.52
2022-08-09T15:30:48.279Z,10.02
2022-08-09T15:32:29.764Z,12.35
2022-08-09T15:35:01.935Z,8.40
2022-08-09T15:37:56.805Z,18.88
2022-08-09T15:40:44.377Z,12.45
2022-08-09T15:43:14.038Z,16.48
2022-08-09T15:46:07.528Z,9.63
2022-08-09T15:48:32.790Z,11.65
2022-08-09T15:51:02.349Z,10.55
2022-08-09T15:54:03.906Z,10.70
2022-08-09T15:56:35.637Z,14.80
2022-08-09T15:59:05.266Z,8.68
2022-08-09T16:01:36.074Z,10.55
2022-08-09T16:04:03.922Z,9.63
2022-08-09T16:06:34.919Z,10.65
2022-08-09T16:09:05.457Z,9.30
2022-08-09T16:11:34.675Z,12.43
2022-08-09T16:14:14.138Z,10.02
2022-08-09T16:16:48.204Z,16.00
2022-08-09T16:19:19.428Z,16.55
2022-08-09T16:21:52.014Z,17.13
2022-08-09T16:24:33.555Z,11.98
2022-08-09T16:27:04.909Z,7.53
2022-08-09T16:29:50.376Z,14.30
2022-08-09T16:32:33.942Z,13.32
2022-08-09T16:35:02.432Z,10.68
2022-08-09T16:37:53.061Z,12.95
2022-08-09T16:40:29.480Z,14.07
2022-08-09T16:43:07.082Z,8.43
2022-08-09T16:45:34.546Z,10.38
2022-08-09T16:48:39.892Z,9.30
2022-08-09T16:50:59.546Z,20.10
2022-08-09T16:53:34.736Z,12.25
2022-08-09T16:56:09.712Z,11.27
2022-08-09T16:58:42.503Z,15.43
2022-08-09T17:01:24.563Z,12.88
2022-08-09T17:03:54.668Z,10.60
2022-08-09T17:06:31.215Z,8.18
2022-08-09T17:09:17.801Z,15.82
2022-08-09T17:11:52.368Z,15.25
2022-08-09T17:14:26.945Z,15.88
2022-08-09T17:17:03.255Z,20.10
2022-08-09T17:20:05.943Z,12.90
2022-08-09T17:22:23.926Z,16.48
2022-08-09T17:24:54.819Z,14.30
2022-08-09T17:27:28.597Z,12.35
2022-08-09T17:29:56.274Z,12.00
2022-08-09T17:32:26.752Z,18.10
2022-08-09T17:35:10.988Z,15.68
2022-08-09T17:38:14.337Z,20.13
2022-08-09T17:40:29.882Z,12.93
2022-08-09T17:42:59.132Z,13.88
2022-08-09T17:46:01.508Z,20.83
2022-08-09T17:48:16.051Z,19.10
2022-08-09T17:50:48.756Z,19.77
2022-08-09T17:53:27.536Z,17.05
2022-08-09T17:56:04.750Z,19.10
2022-08-09T17:58:35.571Z,19.98
2022-08-09T18:01:03.172Z,15.43
2022-08-09T18:03:31.872Z,23.77
2022-08-09T18:06:00.808Z,20.73
2022-08-09T18:08:29.215Z,15.77
2022-08-09T18:11:02.331Z,16.52
2022-08-09T18:13:39.445Z,17.65
2022-08-09T18:16:11.942Z,22.73
2022-08-09T18:18:43.235Z,19.90
2022-08-09T18:21:23.538Z,22.30
2022-08-09T18:24:10.173Z,16.85
2022-08-09T18:26:46.065Z,30.02
2022-08-09T18:30:38.916Z,18.02
2022-08-09T18:32:05.222Z,19.63
2022-08-09T18:34:37.582Z,14.90
2022-08-09T18:37:10.574Z,18.70
2022-08-09T18:39:57.675Z,16.33
2022-08-09T18:42:31.899Z,18.17
2022-08-09T18:45:01.374Z,24.55
2022-08-09T18:47:37.526Z,18.02
2022-08-09T18:50:09.945Z,18.02
2022-08-09T18:52:38.942Z,24.85
2022-08-09T18:55:13.694Z,14.48
2022-08-09T18:57:45.318Z,23.38
2022-08-09T19:00:16.506Z,20.92
2022-08-09T19:02:50.903Z,21.97
2022-08-09T19:05:28.776Z,17.38
2022-08-09T19:08:10.786Z,17.85
2022-08-09T19:10:41.529Z,16.17
2022-08-09T19:13:22.270Z,15.35
2022-08-09T19:15:55.753Z,20.80
2022-08-09T19:18:33.291Z,24.75
2022-08-09T19:21:10.614Z,18.60
2022-08-09T19:24:37.397Z,22.23
2022-08-09T19:26:32.430Z,22.38
2022-08-09T19:29:15.082Z,21.20
2022-08-09T19:31:49.377Z,15.27
2022-08-09T19:34:22.725Z,14.68
2022-08-09T19:36:53.546Z,12.32
2022-08-09T19:39:43.988Z,10.57
2022-08-09T19:42:14.660Z,10.40
2022-08-09T19:44:50.631Z,18.63
2022-08-09T19:47:22.767Z,13.23
2022-08-09T19:50:07.498Z,13.70
2022-08-09T19:52:49.787Z,9.90
2022-08-09T19:55:25.722Z,11.00
2022-08-09T19:57:58.573Z,10.98
2022-08-09T20:00:26.017Z,9.00
2022-08-09T20:04:16.690Z,14.50
2022-08-09T20:05:46.951Z,13.18
2022-08-09T20:08:33.293Z,15.60
2022-08-09T20:11:05.114Z,14.52
2022-08-09T20:13:37.150Z,12.48
2022-08-09T20:16:35.160Z,11.55
2022-08-09T20:19:42.580Z,12.55
2022-08-09T20:21:56.521Z,11.20
2022-08-09T20:24:29.501Z,17.17
2022-08-09T20:27:08.437Z,11.77
2022-08-09T20:29:38.598Z,12.43
2022-08-09T20:32:30.414Z,14.50
2022-08-09T20:34:57.198Z,23.08
2022-08-09T20:37:25.285Z,18.33
2022-08-09T20:40:15.690Z,25.35
2022-08-09T20:42:53.136Z,15.15
2022-08-09T20:45:59.462Z,20.55
2022-08-09T20:48:21.068Z,23.15
2022-08-09T20:50:54.323Z,20.30
2022-08-09T20:53:37.174Z,16.67
2022-08-09T20:56:19.916Z,16.27
2022-08-09T20:58:57.760Z,22.13
2022-08-09T21:01:34.197Z,20.48
2022-08-09T21:05:54.548Z,26.23
2022-08-09T21:07:12.503Z,15.65
2022-08-09T21:09:56.669Z,18.88
2022-08-09T21:15:15.603Z,19.70
2022-08-09T21:18:24.810Z,26.83
2022-08-09T21:20:32.961Z,35.58
2022-08-09T21:23:04.548Z,27.38
2022-08-09T21:25:55.706Z,23.67
2022-08-09T21:28:34.344Z,42.10
2022-08-09T21:31:13.598Z,28.27
2022-08-09T21:33:50.659Z,27.25
2022-08-09T21:36:25.757Z,17.48
2022-08-09T21:38:58.011Z,23.73
2022-08-09T21:42:05.075Z,24.13
2022-08-09T21:44:33.444Z,25.20
2022-08-09T21:47:07.828Z,18.65
2022-08-09T21:49:42.602Z,20.98
2022-08-09T21:52:14.704Z,18.20
2022-08-09T21:54:50.663Z,23.55
2022-08-09T21:57:38.971Z,29.67
2022-08-09T22:00:25.822Z,17.73
2022-08-09T22:02:58.953Z,19.45
2022-08-09T22:05:35.421Z,20.35
2022-08-09T22:08:13.933Z,14.52
2022-08-09T22:11:01.123Z,19.00
2022-08-09T22:13:34.892Z,19.33
2022-08-09T22:16:08.697Z,21.65
2022-08-09T22:18:53.351Z,17.48
2022-08-09T22:21:44.736Z,15.93
2022-08-09T22:24:17.226Z,12.45
2022-08-09T22:26:52.172Z,15.18
2022-08-09T22:29:25.556Z,13.52
2022-08-09T22:31:57.980Z,17.55
2022-08-09T22:34:27.265Z,12.00
2022-08-09T22:36:56.282Z,9.25
2022-08-09T22:39:55.448Z,19.45
2022-08-09T22:42:21.198Z,16.02
2022-08-09T22:48:06.133Z,17.13
2022-08-09T22:48:14.136Z,24.27
2022-08-09T22:50:28.007Z,12.95
2022-08-09T22:52:58.235Z,18.33
2022-08-09T22:55:39.774Z,14.25
2022-08-09T22:58:20.461Z,12.23
2022-08-09T23:01:04.049Z,14.55
2022-08-09T23:04:04.183Z,18.52
2022-08-09T23:06:35.714Z,17.83
2022-08-09T23:09:07.253Z,18.02
2022-08-09T23:11:37.389Z,15.32
2022-08-09T23:14:10.027Z,16.67
2022-08-09T23:16:37.830Z,15.13
2022-08-09T23:19:05.320Z,16.88
2022-08-09T23:21:33.886Z,14.38
2022-08-09T23:24:06.039Z,11.68
2022-08-09T23:26:38.352Z,19.38
2022-08-09T23:29:11.249Z,27.38
2022-08-09T23:31:38.684Z,16.20
2022-08-09T23:34:09.092Z,17.95
2022-08-09T23:36:36.758Z,14.45
2022-08-09T23:39:06.528Z,16.77
2022-08-09T23:41:34.571Z,17.75
2022-08-09T23:44:02.899Z,14.85
2022-08-09T23:46:31.520Z,14.73
2022-08-09T23:49:00.401Z,16.08
2022-08-09T23:51:28.464Z,12.45
2022-08-09T23:54:01.993Z,12.60
2022-08-09T23:56:52.118Z,7.82
2022-08-09T23:59:23.637Z,12.20
